Pickwick, Mississippi
Current Conditions -  °F | °C
As of 11:53 AM on Sunday 21 Dec 2014 (Local Time) from KMCB Reporting Station
Clear Clear  
Wind Chill: 54°   Ceiling: Unl
Heat Index: 54°   Visibility: 10mi
Dew Point: 47°   Wind: 5mph
Humidity: 77%   Direction: NA
Pressure: 30.09"   Gusts: NA
Location:  31.274°N, 89.9542°W
Report Text: KMCB 211753Z AUTO VRB04KT 10SM CLR 12/08 A3009 RMK AO2 SLP187 T01220083 10122 20050 58012
Loading
Personal Weather Stations






























Interactive Weather Map New forecast layout! Learn more

10-Day Weather Forecast

Advertisements
Track Severe Weather on mobile